Arthur City, Texas
Current Conditions -  °F | °C
As of 12:55 PM on Friday 21 Nov 2014 (Local Time) from KHHW Reporting Station
Moderate Fog Moderate Fog  
Wind Chill: 58°   Ceiling: 300
Heat Index: 58°   Visibility: 0.25mi
Dew Point: 56°   Wind: 7mph
Humidity: 94%   Direction: 130°SE
Pressure: 30.12"   Gusts: NA
Location:  33.87°N, 95.51°W
Report Text: KHHW 211855Z AUTO 13006KT 1/4SM FG OVC003 15/14 A3012 RMK AO2 T01450135
Loading
Personal Weather Stations






























Interactive Weather Map New forecast layout! Learn more

10-Day Weather Forecast

Advertisements
Track Severe Weather on mobile